createdAt,value
2019-06-27T00:00:09.571Z,26.98
2019-06-27T00:01:13.180Z,26.98
2019-06-27T00:02:17.320Z,26.98
2019-06-27T00:03:20.842Z,26.95
2019-06-27T00:04:24.994Z,26.87
2019-06-27T00:05:28.526Z,26.82
2019-06-27T00:06:32.717Z,26.89
2019-06-27T00:07:36.351Z,26.83
2019-06-27T00:08:40.488Z,26.79
2019-06-27T00:09:43.996Z,26.72
2019-06-27T00:10:48.194Z,26.70
2019-06-27T00:11:51.829Z,26.72
2019-06-27T00:12:55.985Z,26.73
2019-06-27T00:13:59.513Z,26.67
2019-06-27T00:15:03.618Z,26.70
2019-06-27T00:16:07.206Z,26.73
2019-06-27T00:17:12.304Z,26.82
2019-06-27T00:18:15.741Z,26.92
2019-06-27T00:19:19.862Z,26.76
2019-06-27T00:20:23.319Z,26.74
2019-06-27T00:21:27.424Z,26.78
2019-06-27T00:22:30.907Z,26.79
2019-06-27T00:23:34.952Z,26.77
2019-06-27T00:24:38.511Z,26.77
2019-06-27T00:25:42.673Z,26.82
2019-06-27T00:26:56.705Z,26.81
2019-06-27T00:27:51.920Z,26.82
2019-06-27T00:28:55.437Z,26.71
2019-06-27T00:29:59.515Z,26.72
2019-06-27T00:31:03.175Z,26.83
2019-06-27T00:32:07.252Z,26.73
2019-06-27T00:33:10.719Z,26.69
2019-06-27T00:34:14.810Z,26.79
2019-06-27T00:35:18.333Z,26.84
2019-06-27T00:36:22.436Z,26.85
2019-06-27T00:37:25.979Z,26.71
2019-06-27T00:38:30.100Z,26.64
2019-06-27T00:39:33.544Z,26.63
2019-06-27T00:40:37.712Z,26.63
2019-06-27T00:41:41.302Z,26.71
2019-06-27T00:42:45.438Z,26.68
2019-06-27T00:43:48.895Z,26.63
2019-06-27T00:44:53.016Z,26.63
2019-06-27T00:45:56.496Z,26.67
2019-06-27T00:47:00.628Z,26.49
2019-06-27T00:48:04.187Z,26.40
2019-06-27T00:49:08.343Z,26.38
2019-06-27T00:50:12.242Z,26.41
2019-06-27T00:51:16.291Z,26.44
2019-06-27T00:52:19.762Z,26.40
2019-06-27T00:53:23.881Z,26.49
2019-06-27T00:54:27.351Z,26.60
2019-06-27T00:55:31.526Z,26.62
2019-06-27T00:56:34.989Z,26.61
2019-06-27T00:57:39.196Z,26.62
2019-06-27T00:58:42.783Z,26.56
2019-06-27T00:59:47.007Z,26.51
2019-06-27T01:00:50.524Z,26.53
2019-06-27T01:01:54.621Z,26.56
2019-06-27T01:02:58.257Z,26.51
2019-06-27T01:04:02.899Z,26.52
2019-06-27T01:05:07.885Z,26.57
2019-06-27T01:06:12.001Z,26.55
2019-06-27T01:07:15.449Z,26.45
2019-06-27T01:08:19.749Z,26.35
2019-06-27T01:09:23.340Z,26.38
2019-06-27T01:10:27.457Z,26.32
2019-06-27T01:11:31.062Z,26.34
2019-06-27T01:12:54.674Z,26.31
2019-06-27T01:13:58.307Z,26.33
2019-06-27T01:15:02.560Z,26.33
2019-06-27T01:16:06.172Z,26.38
2019-06-27T01:17:10.355Z,26.37
2019-06-27T01:18:13.833Z,26.39
2019-06-27T01:19:18.082Z,26.50
2019-06-27T01:20:21.614Z,26.58
2019-06-27T01:21:25.726Z,26.44
2019-06-27T01:22:29.242Z,26.43
2019-06-27T01:23:33.381Z,26.38
2019-06-27T01:24:36.975Z,26.41
2019-06-27T01:25:41.085Z,26.34
2019-06-27T01:26:44.771Z,26.28
2019-06-27T01:27:48.908Z,26.23
2019-06-27T01:28:52.416Z,26.28
2019-06-27T01:29:56.148Z,26.26
2019-06-27T01:30:59.676Z,26.27
2019-06-27T01:32:03.791Z,26.19
2019-06-27T01:33:07.346Z,26.09
2019-06-27T01:34:11.414Z,26.12
2019-06-27T01:35:15.236Z,26.22
2019-06-27T01:36:19.284Z,26.25
2019-06-27T01:37:22.804Z,26.24
2019-06-27T01:38:26.936Z,26.17
2019-06-27T01:39:30.387Z,26.18
2019-06-27T01:40:34.558Z,26.14
2019-06-27T01:41:38.150Z,26.18
2019-06-27T01:42:42.334Z,26.23
2019-06-27T01:43:45.877Z,26.29
2019-06-27T01:45:08.766Z,26.24
2019-06-27T01:46:12.296Z,26.16
2019-06-27T01:47:16.411Z,26.03
2019-06-27T01:48:19.982Z,25.99
2019-06-27T01:49:24.084Z,25.98
2019-06-27T01:50:27.671Z,26.06
2019-06-27T01:51:31.774Z,26.11
2019-06-27T01:52:35.226Z,26.13
2019-06-27T01:53:39.375Z,26.09
2019-06-27T01:54:42.819Z,26.05
2019-06-27T01:55:46.990Z,26.00
2019-06-27T01:56:50.449Z,26.01
2019-06-27T01:57:54.621Z,26.09
2019-06-27T01:58:58.189Z,26.09
2019-06-27T02:00:02.396Z,26.11
2019-06-27T02:01:05.972Z,26.00
2019-06-27T02:02:10.218Z,25.98
2019-06-27T02:03:13.747Z,26.01
2019-06-27T02:04:17.955Z,26.04
2019-06-27T02:05:21.499Z,26.03
2019-06-27T02:06:25.545Z,26.04
2019-06-27T02:07:29.001Z,26.07
2019-06-27T02:08:33.142Z,25.98
2019-06-27T02:09:36.663Z,25.96
2019-06-27T02:10:40.885Z,26.01
2019-06-27T02:11:44.502Z,26.03
2019-06-27T02:12:48.617Z,25.94
2019-06-27T02:13:52.149Z,25.84
2019-06-27T02:14:56.300Z,25.79
2019-06-27T02:15:59.826Z,25.77
2019-06-27T02:17:04.071Z,25.74
2019-06-27T02:18:07.662Z,25.78
2019-06-27T02:19:11.857Z,25.70
2019-06-27T02:20:16.181Z,25.73
2019-06-27T02:21:20.303Z,25.75
2019-06-27T02:22:23.841Z,25.74
2019-06-27T02:23:27.868Z,25.78
2019-06-27T02:24:31.422Z,25.75
2019-06-27T02:25:35.340Z,25.66
2019-06-27T02:26:38.863Z,25.67
2019-06-27T02:27:43.058Z,25.72
2019-06-27T02:28:46.602Z,25.71
2019-06-27T02:29:50.814Z,25.79
2019-06-27T02:30:54.340Z,25.84
2019-06-27T02:31:58.465Z,25.81
2019-06-27T02:33:01.991Z,25.79
2019-06-27T02:34:07.082Z,25.71
2019-06-27T02:35:11.234Z,25.74
2019-06-27T02:36:15.289Z,25.73
2019-06-27T02:37:18.905Z,25.77
2019-06-27T02:38:22.923Z,25.81
2019-06-27T02:39:26.487Z,25.83
2019-06-27T02:40:30.516Z,25.85
2019-06-27T02:41:34.347Z,25.90
2019-06-27T02:42:38.547Z,25.91
2019-06-27T02:43:42.006Z,25.82
2019-06-27T02:44:46.086Z,25.77
2019-06-27T02:45:49.663Z,25.76
2019-06-27T02:46:53.791Z,25.75
2019-06-27T02:47:57.403Z,25.79
2019-06-27T02:49:01.471Z,25.89
2019-06-27T02:50:07.114Z,25.98
2019-06-27T02:51:11.803Z,25.98
2019-06-27T02:52:15.369Z,25.99
2019-06-27T02:53:19.411Z,26.01
2019-06-27T02:54:22.963Z,26.02
2019-06-27T02:55:27.004Z,26.04
2019-06-27T02:56:30.443Z,26.04
2019-06-27T02:57:34.623Z,26.05
2019-06-27T02:58:38.111Z,25.97
2019-06-27T02:59:42.379Z,25.92
2019-06-27T03:00:45.946Z,25.85
2019-06-27T03:01:50.107Z,25.89
2019-06-27T03:02:53.911Z,25.90
2019-06-27T03:03:58.013Z,25.93
2019-06-27T03:05:01.668Z,25.91
2019-06-27T03:06:05.872Z,25.91
2019-06-27T03:07:09.674Z,25.97
2019-06-27T03:08:13.861Z,26.00
2019-06-27T03:09:17.414Z,25.91
2019-06-27T03:10:21.708Z,25.91
2019-06-27T03:11:25.230Z,25.97
2019-06-27T03:12:29.609Z,25.99
2019-06-27T03:13:33.069Z,26.06
2019-06-27T03:14:37.208Z,26.10
2019-06-27T03:15:40.671Z,26.08
2019-06-27T03:16:44.695Z,26.10
2019-06-27T03:17:48.234Z,26.02
2019-06-27T03:18:52.349Z,25.92
2019-06-27T03:19:56.046Z,25.76
2019-06-27T03:21:00.120Z,25.70
2019-06-27T03:22:05.785Z,25.73
2019-06-27T03:23:09.646Z,25.74
2019-06-27T03:24:13.172Z,25.63
2019-06-27T03:25:17.391Z,25.64
2019-06-27T03:26:20.856Z,25.61
2019-06-27T03:27:24.995Z,25.66
2019-06-27T03:28:50.106Z,25.61
2019-06-27T03:29:34.209Z,25.66
2019-06-27T03:30:37.749Z,25.71
2019-06-27T03:31:41.875Z,25.71
2019-06-27T03:32:45.336Z,25.74
2019-06-27T03:33:49.449Z,25.77
2019-06-27T03:34:52.979Z,25.75
2019-06-27T03:35:57.088Z,25.68
2019-06-27T03:37:00.607Z,25.64
2019-06-27T03:38:04.811Z,25.53
2019-06-27T03:39:08.421Z,25.53
2019-06-27T03:40:12.698Z,25.56
2019-06-27T03:41:16.157Z,25.51
2019-06-27T03:42:20.263Z,25.44
2019-06-27T03:43:23.827Z,25.45
2019-06-27T03:44:28.048Z,25.49
2019-06-27T03:45:31.958Z,25.52
2019-06-27T03:46:36.111Z,25.58
2019-06-27T03:47:39.678Z,25.53
2019-06-27T03:48:43.743Z,25.45
2019-06-27T03:49:47.269Z,25.49
2019-06-27T03:50:55.890Z,25.45
2019-06-27T03:51:56.719Z,25.42
2019-06-27T03:53:00.757Z,25.39
2019-06-27T03:54:04.298Z,25.39
2019-06-27T03:55:11.376Z,25.44
2019-06-27T03:56:14.907Z,25.36
2019-06-27T03:57:19.013Z,25.39
2019-06-27T03:58:22.489Z,25.42
2019-06-27T03:59:26.682Z,25.44
2019-06-27T04:00:34.066Z,25.40
2019-06-27T04:01:38.190Z,25.47
2019-06-27T04:02:41.781Z,25.43
2019-06-27T04:03:45.917Z,25.46
2019-06-27T04:04:49.505Z,25.54
2019-06-27T04:05:53.714Z,25.61
2019-06-27T04:06:57.373Z,25.66
2019-06-27T04:08:01.411Z,25.58
2019-06-27T04:09:05.876Z,25.50
2019-06-27T04:10:09.786Z,25.49
2019-06-27T04:11:13.402Z,25.55
2019-06-27T04:12:17.572Z,25.59
2019-06-27T04:13:22.252Z,25.58
2019-06-27T04:14:26.293Z,25.57
2019-06-27T04:15:29.840Z,25.59
2019-06-27T04:16:34.021Z,25.63
2019-06-27T04:17:37.657Z,25.65
2019-06-27T04:18:41.836Z,25.58
2019-06-27T04:19:45.395Z,25.55
2019-06-27T04:20:49.546Z,25.45
2019-06-27T04:21:53.110Z,25.56
2019-06-27T04:22:57.341Z,25.52
2019-06-27T04:24:00.936Z,25.40
2019-06-27T04:25:06.519Z,25.40
2019-06-27T04:26:10.095Z,25.38
2019-06-27T04:27:14.277Z,25.50
2019-06-27T04:28:17.884Z,25.50
2019-06-27T04:29:33.580Z,25.46
2019-06-27T04:30:27.364Z,25.52
2019-06-27T04:31:31.576Z,25.49
2019-06-27T04:32:35.210Z,25.58
2019-06-27T04:33:39.400Z,25.60
2019-06-27T04:34:42.920Z,25.68
2019-06-27T04:35:47.063Z,25.75
2019-06-27T04:36:50.532Z,25.78
2019-06-27T04:37:54.727Z,25.73
2019-06-27T04:38:58.188Z,25.70
2019-06-27T04:40:02.495Z,25.76
2019-06-27T04:41:06.028Z,25.81
2019-06-27T04:42:10.147Z,25.87
2019-06-27T04:43:13.735Z,25.96
2019-06-27T04:44:17.923Z,26.00
2019-06-27T04:45:21.442Z,25.82
2019-06-27T04:46:25.579Z,25.72
2019-06-27T04:47:29.110Z,25.63
2019-06-27T04:48:33.154Z,25.57
2019-06-27T04:49:36.620Z,25.66
2019-06-27T04:50:40.742Z,25.67
2019-06-27T04:51:44.199Z,25.73
2019-06-27T04:52:48.491Z,25.72
2019-06-27T04:53:51.939Z,25.72
2019-06-27T04:54:56.105Z,25.80
2019-06-27T04:55:59.635Z,25.76
2019-06-27T04:57:03.758Z,25.82
2019-06-27T04:58:07.358Z,25.83
2019-06-27T04:59:11.410Z,25.86
2019-06-27T05:00:17.907Z,25.88
2019-06-27T05:01:21.966Z,25.79
2019-06-27T05:02:30.229Z,25.69
2019-06-27T05:03:31.428Z,25.79
2019-06-27T05:04:35.548Z,25.90
2019-06-27T05:05:39.677Z,25.89
2019-06-27T05:06:43.146Z,25.81
2019-06-27T05:07:47.221Z,25.69
2019-06-27T05:08:50.750Z,25.71
2019-06-27T05:09:54.883Z,25.84
2019-06-27T05:10:58.443Z,25.90
2019-06-27T05:12:02.488Z,25.90
2019-06-27T05:13:06.099Z,26.03
2019-06-27T05:14:09.878Z,26.13
2019-06-27T05:15:13.493Z,26.16
2019-06-27T05:16:17.572Z,26.16
2019-06-27T05:17:21.030Z,26.23
2019-06-27T05:18:25.151Z,26.32
2019-06-27T05:19:28.633Z,26.30
2019-06-27T05:20:32.818Z,26.33
2019-06-27T05:21:36.373Z,26.37
2019-06-27T05:22:40.595Z,26.34
2019-06-27T05:23:44.122Z,26.41
2019-06-27T05:24:48.186Z,25.48
2019-06-27T05:25:51.648Z,26.50
2019-06-27T05:26:55.780Z,26.52
2019-06-27T05:27:59.258Z,26.47
2019-06-27T05:29:03.339Z,26.43
2019-06-27T05:30:09.808Z,26.47
2019-06-27T05:31:12.838Z,26.53
2019-06-27T05:32:16.301Z,26.49
2019-06-27T05:33:20.366Z,26.54
2019-06-27T05:34:23.969Z,26.57
2019-06-27T05:35:28.053Z,26.65
2019-06-27T05:36:31.526Z,26.59
2019-06-27T05:37:35.576Z,26.64
2019-06-27T05:38:39.185Z,26.68
2019-06-27T05:39:43.205Z,26.71
2019-06-27T05:40:46.806Z,26.71
2019-06-27T05:41:50.931Z,26.72
2019-06-27T05:42:54.394Z,26.76
2019-06-27T05:43:59.504Z,26.78
2019-06-27T05:45:03.298Z,26.81
2019-06-27T05:46:07.411Z,26.84
2019-06-27T05:47:10.883Z,26.83
2019-06-27T05:48:15.022Z,26.89
2019-06-27T05:49:18.468Z,26.90
2019-06-27T05:50:22.668Z,26.91
2019-06-27T05:51:26.140Z,26.97
2019-06-27T05:52:29.979Z,27.01
2019-06-27T05:53:33.476Z,26.92
2019-06-27T05:54:37.627Z,26.82
2019-06-27T05:55:41.144Z,26.83
2019-06-27T05:56:45.027Z,26.90
2019-06-27T05:57:48.605Z,27.03
2019-06-27T05:58:52.604Z,27.08
2019-06-27T05:59:56.328Z,27.05
2019-06-27T06:01:00.499Z,27.07
2019-06-27T06:02:04.146Z,27.08
2019-06-27T06:03:08.262Z,27.05
2019-06-27T06:04:11.748Z,27.03
2019-06-27T06:05:15.998Z,27.01
2019-06-27T06:06:19.590Z,27.10
2019-06-27T06:07:23.746Z,27.15
2019-06-27T06:08:27.188Z,27.24
2019-06-27T06:09:32.996Z,27.35
2019-06-27T06:10:36.640Z,27.44
2019-06-27T06:11:40.786Z,27.41
2019-06-27T06:12:44.310Z,27.33
2019-06-27T06:13:48.473Z,27.20
2019-06-27T06:14:52.221Z,27.15
2019-06-27T06:15:56.421Z,27.14
2019-06-27T06:17:00.044Z,27.19
2019-06-27T06:18:04.229Z,27.26
2019-06-27T06:19:07.692Z,27.28
2019-06-27T06:20:12.038Z,27.28
2019-06-27T06:21:15.567Z,27.37
2019-06-27T06:22:19.743Z,27.49
2019-06-27T06:23:23.263Z,27.53
2019-06-27T06:24:27.388Z,27.56
2019-06-27T06:25:30.836Z,27.62
2019-06-27T06:26:34.943Z,27.66
2019-06-27T06:27:38.502Z,27.73
2019-06-27T06:28:42.882Z,27.65
2019-06-27T06:29:46.415Z,27.68
2019-06-27T06:30:50.793Z,27.69
2019-06-27T06:31:54.360Z,27.75
2019-06-27T06:32:58.494Z,27.77
2019-06-27T06:34:02.046Z,27.82
2019-06-27T06:35:07.865Z,27.88
2019-06-27T06:36:11.314Z,27.91
2019-06-27T06:37:15.496Z,27.97
2019-06-27T06:38:19.097Z,27.99
2019-06-27T06:39:23.346Z,27.96
2019-06-27T06:40:27.004Z,28.03
2019-06-27T06:41:31.141Z,28.09
2019-06-27T06:42:34.671Z,28.13
2019-06-27T06:43:38.786Z,28.10
2019-06-27T06:44:42.379Z,28.09
2019-06-27T06:45:46.789Z,28.05
2019-06-27T06:46:50.278Z,28.03
2019-06-27T06:47:54.487Z,28.11
2019-06-27T06:48:58.032Z,28.14
2019-06-27T06:50:02.132Z,28.15
2019-06-27T06:51:05.637Z,28.18
2019-06-27T06:52:09.831Z,28.23
2019-06-27T06:53:13.296Z,28.23
2019-06-27T06:54:17.396Z,28.20
2019-06-27T06:55:20.909Z,28.18
2019-06-27T06:56:25.076Z,28.24
2019-06-27T06:57:28.639Z,28.22
2019-06-27T06:58:32.748Z,28.24
2019-06-27T06:59:36.258Z,28.29
2019-06-27T07:00:40.457Z,28.29
2019-06-27T07:01:45.761Z,28.36
2019-06-27T07:02:49.751Z,28.37
2019-06-27T07:03:53.315Z,28.35
2019-06-27T07:04:57.421Z,28.30
2019-06-27T07:06:00.897Z,28.32
2019-06-27T07:07:05.016Z,28.31
2019-06-27T07:08:08.554Z,28.35
2019-06-27T07:09:12.648Z,28.31
2019-06-27T07:10:16.794Z,28.35
2019-06-27T07:11:20.872Z,28.30
2019-06-27T07:12:24.460Z,28.29
2019-06-27T07:13:28.511Z,28.27
2019-06-27T07:14:32.035Z,28.34
2019-06-27T07:15:36.138Z,28.40
2019-06-27T07:16:39.600Z,28.40
2019-06-27T07:17:43.757Z,28.49
2019-06-27T07:18:47.272Z,28.49
2019-06-27T07:19:51.366Z,28.47
2019-06-27T07:20:54.879Z,28.57
2019-06-27T07:21:58.990Z,28.65
2019-06-27T07:23:02.719Z,28.69
2019-06-27T07:24:06.953Z,28.80
2019-06-27T07:25:13.817Z,28.76
2019-06-27T07:26:17.863Z,28.69
2019-06-27T07:27:21.498Z,28.64
2019-06-27T07:28:25.634Z,28.64
2019-06-27T07:29:29.090Z,28.65
2019-06-27T07:30:33.197Z,28.71
2019-06-27T07:31:36.772Z,28.80
2019-06-27T07:32:40.904Z,28.86
2019-06-27T07:33:44.489Z,28.86
2019-06-27T07:34:48.566Z,28.79
2019-06-27T07:35:52.088Z,28.78
2019-06-27T07:36:56.123Z,28.79
2019-06-27T07:37:59.616Z,28.79
2019-06-27T07:39:05.279Z,28.90
2019-06-27T07:40:09.213Z,28.90
2019-06-27T07:41:13.269Z,29.02
2019-06-27T07:42:16.873Z,29.02
2019-06-27T07:43:21.013Z,28.99
2019-06-27T07:44:24.522Z,28.99
2019-06-27T07:45:28.586Z,28.97
2019-06-27T07:46:32.134Z,28.97
2019-06-27T07:47:36.225Z,28.93
2019-06-27T07:48:39.795Z,28.93
2019-06-27T07:49:43.926Z,28.98
2019-06-27T07:50:47.523Z,29.11
2019-06-27T07:51:51.307Z,29.18
2019-06-27T07:52:54.898Z,29.13
2019-06-27T07:53:59.039Z,29.13
2019-06-27T07:55:02.560Z,29.14
2019-06-27T07:56:06.599Z,29.19
2019-06-27T07:57:10.136Z,29.31
2019-06-27T07:58:14.181Z,29.31
2019-06-27T07:59:17.722Z,29.36
2019-06-27T08:00:22.109Z,29.33
2019-06-27T08:01:35.173Z,29.33
2019-06-27T08:02:31.458Z,29.29
2019-06-27T08:03:34.935Z,29.40
2019-06-27T08:04:39.030Z,29.39
2019-06-27T08:05:42.551Z,29.39
2019-06-27T08:06:46.721Z,29.39
2019-06-27T08:07:50.321Z,29.45
2019-06-27T08:08:54.477Z,29.48
2019-06-27T08:09:57.925Z,29.48
2019-06-27T08:11:01.998Z,29.51
2019-06-27T08:12:05.645Z,29.51
2019-06-27T08:13:09.764Z,29.52
2019-06-27T08:14:14.795Z,29.52
2019-06-27T08:15:18.967Z,29.54
2019-06-27T08:16:22.454Z,29.57
2019-06-27T08:17:26.592Z,29.64
2019-06-27T08:18:30.083Z,29.64
2019-06-27T08:19:34.184Z,29.56
2019-06-27T08:20:37.661Z,29.56
2019-06-27T08:21:41.715Z,29.55
2019-06-27T08:22:45.191Z,29.60
2019-06-27T08:23:49.255Z,29.60
2019-06-27T08:24:52.853Z,29.60
2019-06-27T08:25:56.908Z,29.66
2019-06-27T08:27:00.547Z,29.66
2019-06-27T08:28:04.691Z,29.76
2019-06-27T08:29:08.219Z,29.84
2019-06-27T08:30:12.603Z,29.83
2019-06-27T08:31:16.134Z,29.83
2019-06-27T08:32:20.255Z,29.80
2019-06-27T08:33:23.773Z,29.73
2019-06-27T08:34:27.915Z,29.80
2019-06-27T08:35:33.663Z,29.84
2019-06-27T08:36:37.349Z,29.84
2019-06-27T08:37:40.797Z,29.87
2019-06-27T08:38:44.832Z,29.91
2019-06-27T08:39:48.482Z,29.91
2019-06-27T08:40:52.648Z,29.92
2019-06-27T08:41:56.098Z,29.91
2019-06-27T08:43:00.143Z,29.92
2019-06-27T08:44:04.690Z,29.94
2019-06-27T08:45:09.184Z,30.00
2019-06-27T08:46:12.684Z,30.04
2019-06-27T08:47:16.740Z,30.06
2019-06-27T08:48:20.257Z,30.05
2019-06-27T08:49:24.368Z,30.12
2019-06-27T08:50:28.016Z,30.10
2019-06-27T08:51:32.116Z,28.57
2019-06-27T08:52:35.710Z,30.14
2019-06-27T08:53:39.828Z,30.22
2019-06-27T08:54:43.307Z,29.51
2019-06-27T08:55:47.421Z,30.31
2019-06-27T08:56:51.017Z,30.31
2019-06-27T08:57:55.218Z,30.37
2019-06-27T08:58:58.807Z,30.37
2019-06-27T09:00:03.061Z,30.35
2019-06-27T09:01:06.597Z,30.37
2019-06-27T09:02:10.703Z,30.40
2019-06-27T09:03:14.239Z,30.47
2019-06-27T09:04:18.358Z,30.52
2019-06-27T09:05:21.883Z,30.62
2019-06-27T09:06:25.982Z,30.59
2019-06-27T09:07:29.426Z,30.59
2019-06-27T09:08:33.533Z,30.59
2019-06-27T09:09:37.070Z,30.61
2019-06-27T09:10:41.334Z,30.64
2019-06-27T09:11:44.831Z,30.61
2019-06-27T09:12:49.019Z,30.62
2019-06-27T09:13:52.620Z,30.61
2019-06-27T09:14:56.825Z,30.61
2019-06-27T09:16:00.352Z,30.66
2019-06-27T09:17:04.539Z,30.63
2019-06-27T09:18:08.146Z,30.59
2019-06-27T09:19:12.208Z,30.55
2019-06-27T09:20:16.043Z,30.59
2019-06-27T09:21:20.147Z,30.61
2019-06-27T09:22:23.758Z,30.60
2019-06-27T09:23:27.856Z,30.64
2019-06-27T09:24:31.403Z,30.64
2019-06-27T09:25:35.523Z,30.68
2019-06-27T09:26:39.025Z,30.70
2019-06-27T09:27:43.197Z,30.79
2019-06-27T09:28:46.844Z,30.80
2019-06-27T09:29:51.008Z,30.76
2019-06-27T09:30:54.611Z,30.81
2019-06-27T09:31:58.705Z,30.85
2019-06-27T09:33:02.247Z,30.84
2019-06-27T09:34:06.351Z,30.87
2019-06-27T09:35:10.371Z,30.84
2019-06-27T09:36:14.498Z,30.83
2019-06-27T09:37:18.056Z,30.83
2019-06-27T09:38:22.158Z,30.87
2019-06-27T09:39:27.088Z,30.93
2019-06-27T09:40:31.412Z,30.95
2019-06-27T09:41:34.991Z,30.97
2019-06-27T09:42:39.160Z,31.03
2019-06-27T09:43:42.828Z,31.12
2019-06-27T09:44:47.639Z,31.13
2019-06-27T09:45:51.227Z,31.20
2019-06-27T09:46:55.435Z,31.26
2019-06-27T09:47:58.964Z,31.32
2019-06-27T09:49:03.190Z,31.39
2019-06-27T09:50:08.269Z,31.47
2019-06-27T09:51:12.461Z,31.55
2019-06-27T09:52:16.102Z,31.54
2019-06-27T09:53:20.323Z,31.60
2019-06-27T09:54:23.910Z,31.61
2019-06-27T09:55:28.050Z,31.61
2019-06-27T09:56:31.494Z,31.62
2019-06-27T09:57:35.663Z,31.62
2019-06-27T09:58:39.167Z,31.66
2019-06-27T09:59:43.235Z,31.71
2019-06-27T10:00:46.757Z,31.77
2019-06-27T10:01:51.005Z,31.76
2019-06-27T10:02:54.530Z,31.68
2019-06-27T10:03:58.586Z,31.60
2019-06-27T10:05:02.168Z,31.63
2019-06-27T10:06:06.361Z,31.72
2019-06-27T10:07:15.052Z,31.75
2019-06-27T10:08:19.205Z,31.72
2019-06-27T10:09:22.811Z,31.68
2019-06-27T10:10:26.937Z,31.69
2019-06-27T10:11:30.459Z,31.72
2019-06-27T10:12:42.319Z,31.69
2019-06-27T10:13:40.554Z,31.70
2019-06-27T10:14:44.632Z,31.73
2019-06-27T10:15:48.177Z,31.83
2019-06-27T10:16:52.272Z,31.87
2019-06-27T10:17:55.829Z,31.89
2019-06-27T10:18:59.901Z,31.89
2019-06-27T10:20:04.697Z,31.94
2019-06-27T10:21:08.760Z,32.00
2019-06-27T10:22:12.283Z,32.12
2019-06-27T10:23:16.317Z,32.26
2019-06-27T10:24:19.770Z,32.37
2019-06-27T10:25:23.828Z,32.44
2019-06-27T10:26:27.355Z,32.41
2019-06-27T10:27:31.449Z,32.42
2019-06-27T10:28:34.905Z,32.37
2019-06-27T10:29:39.016Z,32.45
2019-06-27T10:30:42.472Z,32.59
2019-06-27T10:31:46.584Z,32.64
2019-06-27T10:32:58.935Z,32.64
2019-06-27T10:33:55.998Z,32.57
2019-06-27T10:34:59.796Z,32.53
2019-06-27T10:36:03.972Z,32.58
2019-06-27T10:37:07.487Z,32.57
2019-06-27T10:38:11.626Z,32.64
2019-06-27T10:39:15.168Z,32.68
2019-06-27T10:40:19.639Z,32.70
2019-06-27T10:41:23.151Z,32.67
2019-06-27T10:42:27.174Z,32.67
2019-06-27T10:43:30.856Z,32.83
2019-06-27T10:44:35.010Z,32.91
2019-06-27T10:45:38.486Z,32.88
2019-06-27T10:46:42.660Z,32.93
2019-06-27T10:47:46.147Z,33.04
2019-06-27T10:48:50.184Z,33.12
2019-06-27T10:49:53.710Z,33.18
2019-06-27T10:50:57.653Z,33.24
2019-06-27T10:52:01.358Z,33.30
2019-06-27T10:53:05.610Z,33.36
2019-06-27T10:54:09.134Z,33.38
2019-06-27T10:55:13.533Z,33.39
2019-06-27T10:56:16.975Z,33.40
2019-06-27T10:57:21.238Z,33.41
2019-06-27T10:58:24.735Z,33.44
2019-06-27T10:59:28.758Z,33.48
2019-06-27T11:00:32.420Z,33.59
2019-06-27T11:01:36.519Z,33.65
2019-06-27T11:02:40.054Z,33.66
2019-06-27T11:03:44.472Z,33.61
2019-06-27T11:04:47.880Z,33.63
2019-06-27T11:05:51.949Z,33.72
2019-06-27T11:06:55.432Z,33.57
2019-06-27T11:07:59.324Z,33.52
2019-06-27T11:09:03.000Z,33.47
2019-06-27T11:10:09.277Z,33.48
2019-06-27T11:11:12.631Z,33.47
2019-06-27T11:12:16.742Z,33.50
2019-06-27T11:13:20.485Z,33.61
2019-06-27T11:14:24.590Z,32.75
2019-06-27T11:15:28.054Z,33.79
2019-06-27T11:16:32.132Z,33.76
2019-06-27T11:17:35.692Z,33.77
2019-06-27T11:18:39.818Z,33.73
2019-06-27T11:19:52.331Z,33.57
2019-06-27T11:20:49.123Z,33.47
2019-06-27T11:21:52.803Z,33.33
2019-06-27T11:22:56.891Z,33.25
2019-06-27T11:24:00.475Z,33.25
2019-06-27T11:25:06.233Z,33.23
2019-06-27T11:26:09.748Z,32.33
2019-06-27T11:27:13.977Z,33.29
2019-06-27T11:28:17.435Z,33.22
2019-06-27T11:29:21.602Z,33.31
2019-06-27T11:30:25.197Z,33.40
2019-06-27T11:31:29.311Z,33.37
2019-06-27T11:32:32.806Z,33.39
2019-06-27T11:33:36.813Z,33.30
2019-06-27T11:34:40.341Z,33.26
2019-06-27T11:35:44.372Z,33.23
2019-06-27T11:36:47.859Z,33.24
2019-06-27T11:37:51.959Z,33.27
2019-06-27T11:38:55.481Z,33.42
2019-06-27T11:39:59.517Z,33.59
2019-06-27T11:41:03.039Z,33.71
2019-06-27T11:42:07.278Z,33.84
2019-06-27T11:43:10.887Z,33.91
2019-06-27T11:44:15.069Z,33.91
2019-06-27T11:45:18.657Z,33.92
2019-06-27T11:46:22.798Z,33.82
2019-06-27T11:47:26.279Z,33.82
2019-06-27T11:48:30.553Z,33.93
2019-06-27T11:49:34.149Z,34.07
2019-06-27T11:50:38.200Z,34.12
2019-06-27T11:51:41.787Z,34.24
2019-06-27T11:52:47.183Z,34.28
2019-06-27T11:53:51.113Z,34.34
2019-06-27T11:54:55.261Z,34.43
2019-06-27T11:55:58.790Z,34.45
2019-06-27T11:57:02.903Z,34.36
2019-06-27T11:58:06.496Z,34.24
2019-06-27T11:59:10.565Z,34.20
2019-06-27T12:00:14.342Z,34.28
2019-06-27T12:01:18.447Z,34.42
2019-06-27T12:02:21.965Z,34.50
2019-06-27T12:03:26.090Z,34.47
2019-06-27T12:04:29.657Z,34.37
2019-06-27T12:05:33.818Z,34.51
2019-06-27T12:06:37.335Z,34.52
2019-06-27T12:07:41.439Z,34.70
2019-06-27T12:08:45.044Z,34.75
2019-06-27T12:09:49.151Z,34.80
2019-06-27T12:10:52.747Z,34.87
2019-06-27T12:11:56.846Z,34.91
2019-06-27T12:13:00.460Z,34.96
2019-06-27T12:14:04.531Z,35.00
2019-06-27T12:15:10.276Z,35.12
2019-06-27T12:16:14.313Z,35.17
2019-06-27T12:17:17.814Z,35.11
2019-06-27T12:18:21.948Z,35.09
2019-06-27T12:19:25.428Z,35.01
2019-06-27T12:20:29.527Z,34.91
2019-06-27T12:21:33.050Z,34.97
2019-06-27T12:22:37.167Z,34.94
2019-06-27T12:23:40.690Z,34.99
2019-06-27T12:24:44.814Z,35.13
2019-06-27T12:25:48.310Z,35.19
2019-06-27T12:26:52.142Z,35.25
2019-06-27T12:27:55.659Z,35.33
2019-06-27T12:28:59.764Z,35.37
2019-06-27T12:30:03.865Z,35.32
2019-06-27T12:31:19.925Z,35.31
2019-06-27T12:32:13.413Z,35.41
2019-06-27T12:33:17.510Z,35.60
2019-06-27T12:34:20.962Z,35.77
2019-06-27T12:35:25.070Z,35.72
2019-06-27T12:36:28.726Z,35.71
2019-06-27T12:37:32.720Z,35.65
2019-06-27T12:38:36.235Z,35.61
2019-06-27T12:39:40.268Z,35.57
2019-06-27T12:40:43.859Z,35.51
2019-06-27T12:41:47.944Z,35.52
2019-06-27T12:42:51.381Z,35.39
2019-06-27T12:43:55.558Z,35.40
2019-06-27T12:44:59.151Z,35.55
2019-06-27T12:46:03.817Z,35.66
2019-06-27T12:47:07.382Z,35.91
2019-06-27T12:48:11.504Z,36.06
2019-06-27T12:49:15.932Z,36.02
2019-06-27T12:50:20.561Z,36.09
2019-06-27T12:51:27.109Z,36.11
2019-06-27T12:52:31.466Z,36.19
2019-06-27T12:53:34.978Z,36.25
2019-06-27T12:54:39.012Z,36.27
2019-06-27T12:55:42.449Z,36.26
2019-06-27T12:56:46.491Z,36.29
2019-06-27T12:57:50.130Z,36.32
2019-06-27T12:58:54.187Z,36.33
2019-06-27T12:59:58.649Z,36.39
2019-06-27T13:01:02.780Z,36.27
2019-06-27T13:02:06.336Z,36.20
2019-06-27T13:03:10.510Z,36.25
2019-06-27T13:04:23.395Z,36.33
2019-06-27T13:05:20.766Z,36.46
2019-06-27T13:06:24.316Z,36.53
2019-06-27T13:07:28.639Z,36.60
2019-06-27T13:08:32.147Z,36.74
2019-06-27T13:09:36.190Z,36.76
2019-06-27T13:10:39.895Z,36.84
2019-06-27T13:11:44.605Z,36.91
2019-06-27T13:12:49.420Z,37.05
2019-06-27T13:13:53.548Z,37.12
2019-06-27T13:14:57.171Z,37.20
2019-06-27T13:16:01.201Z,37.16
2019-06-27T13:17:05.511Z,37.12
2019-06-27T13:18:09.709Z,37.17
2019-06-27T13:19:13.229Z,37.34
2019-06-27T13:20:17.609Z,37.63
2019-06-27T13:21:21.198Z,37.79
2019-06-27T13:22:25.372Z,37.85
2019-06-27T13:23:28.917Z,37.96
2019-06-27T13:24:32.950Z,38.18
2019-06-27T13:25:36.556Z,38.55
2019-06-27T13:26:40.820Z,38.99
2019-06-27T13:27:44.503Z,39.73
2019-06-27T13:28:48.681Z,40.63
2019-06-27T13:29:52.200Z,41.41
2019-06-27T13:30:56.317Z,42.11
2019-06-27T13:31:59.773Z,42.16
2019-06-27T13:33:03.930Z,42.49
2019-06-27T13:34:07.557Z,43.32
2019-06-27T13:35:12.070Z,44.48
2019-06-27T13:36:15.514Z,45.52
2019-06-27T13:37:19.655Z,46.84
2019-06-27T13:38:23.296Z,47.54
2019-06-27T13:39:27.525Z,47.93
2019-06-27T13:40:31.046Z,48.09
2019-06-27T13:41:35.227Z,48.48
2019-06-27T13:42:38.969Z,45.91
2019-06-27T13:43:44.882Z,43.69